Ribadesella, Spain
Current Conditions -  °F | °C
As of 9:00 PM on Sunday 25 Jan 2015 (Local Time) from LEAS Reporting Station
Broken Clouds Broken Clouds  
Wind Chill: 45°   Ceiling: 3000
Heat Index: 45°   Visibility: 6mi
Dew Point: 37°   Wind: 2mph
Humidity: 76%   Direction: NA
Pressure: 30.53"   Gusts: NA
Location:  43.46°N, 5.06°W
Report Text: LEAS 252000Z VRB02KT 9999 BKN030 07/03 Q1034 NOSIG
Loading
Personal Weather Stations






























Interactive Weather Map New forecast layout! Learn more

10-Day Weather Forecast

Advertisements
Track Severe Weather on mobile